Orient, Maine
Current Conditions -  °F | °C
As of 1:20 PM on Thursday 23 Oct 2014 (Local Time) from KHUL Reporting Station
Overcast Overcast  
Wind Chill:   Ceiling: 4700
Heat Index:   Visibility: 10mi
Dew Point:   Wind: 15mph
Humidity: 89%   Direction: 30°NNE
Pressure: 30.02"   Gusts: NA
Location:  45.82°N, 67.84°W
Report Text: KHUL 231720Z AUTO 03013KT 10SM FEW020 OVC047 09/07 A3002 RMK AO2 RAE06 P0000 T00890072
Loading
Personal Weather Stations






























Interactive Weather Map
Tropical Storm Tracking
New forecast layout! Learn more

10-Day Weather Forecast

Advertisements
Track Severe Weather on mobile